createdAt,value
2018-12-30T00:01:03.538Z,13.77
2018-12-30T00:03:31.154Z,14.07
2018-12-30T00:05:58.660Z,14.18
2018-12-30T00:08:25.850Z,14.20
2018-12-30T00:10:53.355Z,13.27
2018-12-30T00:13:20.965Z,13.40
2018-12-30T00:15:48.543Z,13.50
2018-12-30T00:18:15.618Z,12.47
2018-12-30T00:20:42.779Z,13.30
2018-12-30T00:23:10.147Z,13.43
2018-12-30T00:25:37.223Z,12.90
2018-12-30T00:28:04.290Z,13.80
2018-12-30T00:30:31.591Z,12.67
2018-12-30T00:32:58.846Z,12.10
2018-12-30T00:35:25.823Z,13.50
2018-12-30T00:37:53.259Z,12.93
2018-12-30T00:40:20.626Z,13.37
2018-12-30T00:42:48.078Z,22.20
2018-12-30T00:45:14.834Z,19.47
2018-12-30T00:47:41.590Z,13.60
2018-12-30T00:50:08.571Z,12.82
2018-12-30T00:52:35.579Z,12.97
2018-12-30T00:55:06.440Z,12.73
2018-12-30T00:57:33.595Z,12.57
2018-12-30T01:00:01.087Z,12.30
2018-12-30T01:02:28.695Z,11.95
2018-12-30T01:04:55.783Z,11.90
2018-12-30T01:07:22.778Z,12.40
2018-12-30T01:09:49.771Z,11.97
2018-12-30T01:12:17.043Z,12.30
2018-12-30T01:14:43.904Z,11.77
2018-12-30T01:17:11.563Z,12.03
2018-12-30T01:19:38.598Z,11.23
2018-12-30T01:22:05.862Z,10.93
2018-12-30T01:24:32.898Z,10.67
2018-12-30T01:27:00.243Z,11.37
2018-12-30T01:29:27.539Z,10.40
2018-12-30T01:31:54.714Z,10.77
2018-12-30T01:34:21.707Z,10.80
2018-12-30T01:36:48.666Z,10.60
2018-12-30T01:39:15.912Z,11.00
2018-12-30T01:41:43.563Z,12.07
2018-12-30T01:44:10.326Z,11.07
2018-12-30T01:46:37.675Z,11.97
2018-12-30T01:49:04.839Z,10.60
2018-12-30T01:51:33.190Z,12.30
2018-12-30T01:54:00.959Z,11.37
2018-12-30T01:56:28.227Z,10.90
2018-12-30T01:58:55.001Z,11.13
2018-12-30T02:01:22.019Z,11.67
2018-12-30T02:03:49.863Z,10.50
2018-12-30T02:06:17.423Z,11.83
2018-12-30T02:08:44.770Z,11.67
2018-12-30T02:11:12.196Z,11.20
2018-12-30T02:13:39.511Z,11.17
2018-12-30T02:16:06.893Z,10.83
2018-12-30T02:18:33.991Z,10.57
2018-12-30T02:21:01.095Z,10.63
2018-12-30T02:23:28.507Z,10.33
2018-12-30T02:25:56.391Z,10.40
2018-12-30T02:28:24.031Z,10.63
2018-12-30T02:30:50.788Z,10.40
2018-12-30T02:33:18.003Z,10.80
2018-12-30T02:35:46.553Z,11.10
2018-12-30T02:38:13.925Z,10.90
2018-12-30T02:40:40.679Z,10.80
2018-12-30T02:43:08.136Z,11.33
2018-12-30T02:45:35.515Z,10.90
2018-12-30T02:48:21.928Z,10.23
2018-12-30T02:50:48.919Z,10.00
2018-12-30T02:53:16.379Z,10.10
2018-12-30T02:55:43.389Z,9.93
2018-12-30T02:58:10.412Z,10.13
2018-12-30T03:00:37.707Z,10.00
2018-12-30T03:03:04.873Z,10.10
2018-12-30T03:05:31.871Z,8.80
2018-12-30T03:07:58.741Z,8.23
2018-12-30T03:10:25.508Z,8.03
2018-12-30T03:12:52.599Z,8.10
2018-12-30T03:15:19.851Z,7.30
2018-12-30T03:17:46.609Z,7.83
2018-12-30T03:20:14.019Z,7.70
2018-12-30T03:22:40.803Z,7.87
2018-12-30T03:25:08.132Z,7.37
2018-12-30T03:27:35.419Z,7.53
2018-12-30T03:30:03.166Z,7.33
2018-12-30T03:32:30.686Z,7.13
2018-12-30T03:34:58.083Z,7.07
2018-12-30T03:37:25.631Z,7.20
2018-12-30T03:39:52.992Z,7.77
2018-12-30T03:42:20.401Z,6.87
2018-12-30T03:44:47.807Z,7.50
2018-12-30T03:47:15.140Z,6.63
2018-12-30T03:49:42.519Z,6.63
2018-12-30T03:52:09.563Z,5.87
2018-12-30T03:54:36.668Z,5.87
2018-12-30T03:57:03.759Z,5.87
2018-12-30T03:59:31.123Z,6.03
2018-12-30T04:01:58.267Z,5.57
2018-12-30T04:04:25.765Z,5.80
2018-12-30T04:06:52.798Z,6.23
2018-12-30T04:09:20.082Z,6.70
2018-12-30T04:11:47.592Z,5.70
2018-12-30T04:14:14.643Z,5.70
2018-12-30T04:16:41.726Z,6.37
2018-12-30T04:19:08.776Z,5.40
2018-12-30T04:21:35.569Z,5.70
2018-12-30T04:24:02.823Z,5.50
2018-12-30T04:26:29.872Z,5.30
2018-12-30T04:28:56.912Z,4.80
2018-12-30T04:31:23.951Z,4.60
2018-12-30T04:33:50.963Z,4.90
2018-12-30T04:36:17.991Z,4.77
2018-12-30T04:38:45.060Z,4.60
2018-12-30T04:41:11.853Z,4.47
2018-12-30T04:43:38.909Z,4.87
2018-12-30T04:46:05.684Z,4.07
2018-12-30T04:48:32.698Z,4.50
2018-12-30T04:50:59.475Z,4.67
2018-12-30T04:53:26.792Z,4.30
2018-12-30T04:55:54.123Z,3.80
2018-12-30T04:58:22.123Z,4.10
2018-12-30T05:00:48.988Z,4.40
2018-12-30T05:03:16.367Z,4.40
2018-12-30T05:05:44.048Z,4.47
2018-12-30T05:08:11.145Z,3.90
2018-12-30T05:10:38.886Z,4.10
2018-12-30T05:13:06.360Z,4.23
2018-12-30T05:15:33.705Z,3.90
2018-12-30T05:18:01.160Z,4.33
2018-12-30T05:20:28.413Z,4.80
2018-12-30T05:22:55.549Z,4.30
2018-12-30T05:25:22.603Z,4.60
2018-12-30T05:27:49.743Z,4.43
2018-12-30T05:30:16.805Z,3.90
2018-12-30T05:32:43.888Z,3.60
2018-12-30T05:35:11.265Z,3.93
2018-12-30T05:37:38.664Z,3.67
2018-12-30T05:40:05.818Z,3.70
2018-12-30T05:42:33.180Z,3.60
2018-12-30T05:45:00.581Z,4.07
2018-12-30T05:47:27.503Z,3.97
2018-12-30T05:49:55.148Z,3.90
2018-12-30T05:52:22.243Z,4.17
2018-12-30T05:54:49.348Z,3.60
2018-12-30T05:57:16.684Z,3.30
2018-12-30T05:59:43.784Z,4.43
2018-12-30T06:02:11.411Z,3.77
2018-12-30T06:04:38.753Z,3.47
2018-12-30T06:07:05.863Z,3.33
2018-12-30T06:09:32.634Z,3.53
2018-12-30T06:12:00.003Z,3.67
2018-12-30T06:14:27.400Z,3.70
2018-12-30T06:16:54.943Z,3.47
2018-12-30T06:19:22.883Z,3.20
2018-12-30T06:21:50.229Z,3.37
2018-12-30T06:24:17.595Z,4.13
2018-12-30T06:26:44.627Z,4.23
2018-12-30T06:29:11.638Z,3.90
2018-12-30T06:31:38.635Z,4.27
2018-12-30T06:34:05.851Z,4.60
2018-12-30T06:36:33.344Z,4.77
2018-12-30T06:39:00.662Z,4.87
2018-12-30T06:41:27.663Z,5.77
2018-12-30T06:43:54.780Z,9.20
2018-12-30T06:46:21.886Z,9.43
2018-12-30T06:48:48.998Z,9.57
2018-12-30T06:51:16.347Z,9.43
2018-12-30T06:53:43.379Z,9.90
2018-12-30T06:56:10.443Z,10.10
2018-12-30T06:58:37.798Z,10.60
2018-12-30T07:01:04.868Z,10.33
2018-12-30T07:03:31.983Z,10.80
2018-12-30T07:05:59.612Z,11.20
2018-12-30T07:08:26.426Z,11.07
2018-12-30T07:10:53.195Z,10.97
2018-12-30T07:13:20.609Z,10.63
2018-12-30T07:15:48.055Z,10.43
2018-12-30T07:18:15.976Z,10.63
2018-12-30T07:20:43.068Z,10.73
2018-12-30T07:23:10.782Z,10.10
2018-12-30T07:25:37.867Z,11.67
2018-12-30T07:28:04.855Z,11.20
2018-12-30T07:30:32.204Z,11.43
2018-12-30T07:32:59.335Z,37.13
2018-12-30T07:35:26.234Z,12.40
2018-12-30T07:37:53.487Z,12.43
2018-12-30T07:40:20.312Z,12.23
2018-12-30T07:42:47.244Z,11.30
2018-12-30T07:45:14.275Z,12.03
2018-12-30T07:47:41.324Z,10.57
2018-12-30T07:50:08.367Z,9.70
2018-12-30T07:52:35.458Z,10.10
2018-12-30T07:55:02.486Z,8.63
2018-12-30T07:57:29.226Z,8.27
2018-12-30T07:59:57.083Z,7.10
2018-12-30T08:02:23.985Z,7.30
2018-12-30T08:04:51.435Z,6.80
2018-12-30T08:07:18.831Z,6.60
2018-12-30T08:09:45.703Z,5.90
2018-12-30T08:12:12.988Z,5.70
2018-12-30T08:14:40.635Z,5.33
2018-12-30T08:17:07.811Z,4.80
2018-12-30T08:19:34.902Z,4.27
2018-12-30T08:22:01.957Z,4.70
2018-12-30T08:24:28.773Z,5.50
2018-12-30T08:26:55.927Z,4.53
2018-12-30T08:29:23.319Z,4.63
2018-12-30T08:31:50.848Z,4.27
2018-12-30T08:34:18.163Z,4.30
2018-12-30T08:36:45.253Z,4.37
2018-12-30T08:39:12.647Z,4.17
2018-12-30T08:41:39.707Z,4.50
2018-12-30T08:44:06.918Z,4.10
2018-12-30T08:46:33.996Z,6.77
2018-12-30T08:49:01.450Z,10.00
2018-12-30T08:51:28.232Z,9.73
2018-12-30T08:53:55.607Z,10.80
2018-12-30T08:56:22.815Z,11.37
2018-12-30T08:58:50.827Z,11.03
2018-12-30T09:01:18.375Z,11.30
2018-12-30T09:03:46.259Z,11.70
2018-12-30T09:06:13.965Z,11.30
2018-12-30T09:08:41.895Z,10.83
2018-12-30T09:11:09.187Z,11.10
2018-12-30T09:13:36.395Z,9.80
2018-12-30T09:16:03.946Z,8.90
2018-12-30T09:18:31.269Z,8.73
2018-12-30T09:20:58.771Z,8.80
2018-12-30T09:23:26.239Z,9.30
2018-12-30T09:25:53.043Z,8.13
2018-12-30T09:28:20.210Z,8.30
2018-12-30T09:30:47.676Z,6.97
2018-12-30T09:33:15.096Z,6.83
2018-12-30T09:35:42.390Z,7.40
2018-12-30T09:38:10.295Z,8.03
2018-12-30T09:40:37.703Z,7.20
2018-12-30T09:43:04.579Z,7.13
2018-12-30T09:45:31.638Z,7.83
2018-12-30T09:47:59.260Z,7.43
2018-12-30T09:50:26.511Z,7.73
2018-12-30T09:52:53.895Z,8.00
2018-12-30T09:55:21.333Z,9.27
2018-12-30T09:57:49.190Z,10.20
2018-12-30T10:00:16.543Z,9.57
2018-12-30T10:02:43.816Z,8.40
2018-12-30T10:05:11.159Z,7.87
2018-12-30T10:07:38.731Z,7.50
2018-12-30T10:10:05.927Z,6.77
2018-12-30T10:12:32.979Z,7.23
2018-12-30T10:15:09.067Z,9.63
2018-12-30T10:17:28.996Z,8.80
2018-12-30T10:19:56.468Z,8.30
2018-12-30T10:22:23.352Z,6.80
2018-12-30T10:24:50.145Z,7.00
2018-12-30T10:27:17.181Z,7.00
2018-12-30T10:29:44.608Z,7.40
2018-12-30T10:32:11.457Z,6.60
2018-12-30T10:34:38.802Z,7.13
2018-12-30T10:37:06.159Z,7.37
2018-12-30T10:39:33.195Z,7.53
2018-12-30T10:42:00.053Z,7.33
2018-12-30T10:44:27.811Z,8.03
2018-12-30T10:46:54.866Z,7.87
2018-12-30T10:49:22.647Z,6.93
2018-12-30T10:51:49.674Z,6.77
2018-12-30T10:54:16.646Z,6.33
2018-12-30T10:56:43.687Z,6.07
2018-12-30T10:59:11.285Z,6.53
2018-12-30T11:01:38.807Z,6.33
2018-12-30T11:04:06.147Z,5.23
2018-12-30T11:06:33.274Z,15.10
2018-12-30T11:09:01.010Z,6.47
2018-12-30T11:11:28.721Z,5.87
2018-12-30T11:13:55.766Z,6.17
2018-12-30T11:16:22.830Z,5.37
2018-12-30T11:18:49.883Z,5.03
2018-12-30T11:21:16.650Z,5.07
2018-12-30T11:23:43.760Z,5.10
2018-12-30T11:26:10.556Z,4.77
2018-12-30T11:28:37.738Z,5.93
2018-12-30T11:31:04.612Z,5.40
2018-12-30T11:33:31.614Z,5.53
2018-12-30T11:35:58.931Z,5.63
2018-12-30T11:38:26.267Z,6.40
2018-12-30T11:40:53.355Z,6.03
2018-12-30T11:43:20.559Z,5.97
2018-12-30T11:45:48.156Z,7.00
2018-12-30T11:48:15.244Z,7.07
2018-12-30T11:50:42.460Z,7.80
2018-12-30T11:53:09.866Z,7.90
2018-12-30T11:55:37.022Z,7.30
2018-12-30T11:58:04.374Z,7.13
2018-12-30T12:00:32.415Z,7.10
2018-12-30T12:02:59.457Z,7.03
2018-12-30T12:05:27.153Z,7.50
2018-12-30T12:07:54.511Z,6.57
2018-12-30T12:10:21.536Z,7.53
2018-12-30T12:12:48.990Z,8.10
2018-12-30T12:15:16.532Z,8.13
2018-12-30T12:17:43.659Z,7.87
2018-12-30T12:20:11.076Z,7.90
2018-12-30T12:22:38.094Z,8.27
2018-12-30T12:25:05.891Z,8.23
2018-12-30T12:27:32.955Z,7.30
2018-12-30T12:30:00.299Z,8.33
2018-12-30T12:32:27.055Z,7.83
2018-12-30T12:34:54.083Z,8.03
2018-12-30T12:37:20.881Z,7.93
2018-12-30T12:39:47.903Z,8.30
2018-12-30T12:42:15.030Z,7.47
2018-12-30T12:44:42.079Z,8.10
2018-12-30T12:47:09.335Z,8.17
2018-12-30T12:49:36.347Z,7.87
2018-12-30T12:52:03.792Z,8.67
2018-12-30T12:54:32.304Z,8.27
2018-12-30T12:56:59.464Z,7.83
2018-12-30T12:59:26.239Z,8.77
2018-12-30T13:01:53.555Z,8.30
2018-12-30T13:04:20.486Z,8.87
2018-12-30T13:06:47.503Z,8.30
2018-12-30T13:09:14.564Z,18.70
2018-12-30T13:11:41.332Z,7.67
2018-12-30T13:14:08.347Z,8.47
2018-12-30T13:16:35.408Z,8.20
2018-12-30T13:19:02.483Z,8.00
2018-12-30T13:21:29.939Z,8.30
2018-12-30T13:23:56.983Z,8.03
2018-12-30T13:26:24.343Z,8.10
2018-12-30T13:28:51.143Z,7.93
2018-12-30T13:31:17.943Z,7.43
2018-12-30T13:33:46.527Z,8.33
2018-12-30T13:36:14.972Z,7.53
2018-12-30T13:38:41.764Z,7.97
2018-12-30T13:41:09.187Z,8.33
2018-12-30T13:43:36.343Z,8.57
2018-12-30T13:46:03.588Z,8.73
2018-12-30T13:48:30.433Z,8.53
2018-12-30T13:50:57.460Z,8.53
2018-12-30T13:53:24.588Z,8.63
2018-12-30T13:55:51.755Z,9.20
2018-12-30T13:58:18.819Z,9.23
2018-12-30T14:00:46.150Z,8.73
2018-12-30T14:03:13.595Z,8.83
2018-12-30T14:05:41.219Z,8.87
2018-12-30T14:08:08.554Z,8.80
2018-12-30T14:10:35.915Z,8.43
2018-12-30T14:13:03.436Z,9.67
2018-12-30T14:15:30.628Z,9.87
2018-12-30T14:17:57.592Z,8.37
2018-12-30T14:20:24.687Z,8.73
2018-12-30T14:22:52.556Z,8.27
2018-12-30T14:25:19.345Z,8.73
2018-12-30T14:27:46.113Z,9.57
2018-12-30T14:30:12.995Z,9.40
2018-12-30T14:32:40.278Z,9.07
2018-12-30T14:35:07.686Z,9.50
2018-12-30T14:37:34.568Z,9.30
2018-12-30T14:40:01.368Z,8.93
2018-12-30T14:42:29.072Z,8.83
2018-12-30T14:44:56.364Z,8.50
2018-12-30T14:47:23.352Z,9.77
2018-12-30T14:49:50.841Z,8.80
2018-12-30T14:52:17.949Z,8.30
2018-12-30T14:54:45.008Z,8.80
2018-12-30T14:57:11.905Z,8.83
2018-12-30T14:59:39.229Z,8.53
2018-12-30T15:02:06.909Z,7.67
2018-12-30T15:04:34.244Z,9.43
2018-12-30T15:07:02.020Z,8.83
2018-12-30T15:09:35.443Z,8.50
2018-12-30T15:11:57.804Z,8.43
2018-12-30T15:14:24.666Z,8.03
2018-12-30T15:16:51.904Z,9.13
2018-12-30T15:19:19.121Z,8.90
2018-12-30T15:21:46.072Z,10.40
2018-12-30T15:24:12.844Z,9.03
2018-12-30T15:26:40.041Z,9.80
2018-12-30T15:29:07.068Z,9.10
2018-12-30T15:31:34.373Z,9.60
2018-12-30T15:34:01.254Z,9.17
2018-12-30T15:36:29.043Z,9.27
2018-12-30T15:38:56.104Z,9.63
2018-12-30T15:41:23.396Z,13.73
2018-12-30T15:43:50.439Z,10.57
2018-12-30T15:46:17.613Z,9.63
2018-12-30T15:48:44.796Z,9.93
2018-12-30T15:51:12.557Z,10.60
2018-12-30T15:53:39.607Z,10.00
2018-12-30T15:56:07.066Z,8.83
2018-12-30T15:58:34.108Z,8.70
2018-12-30T16:01:01.473Z,7.37
2018-12-30T16:03:28.840Z,8.10
2018-12-30T16:05:57.844Z,7.53
2018-12-30T16:08:25.364Z,7.47
2018-12-30T16:10:52.624Z,7.20
2018-12-30T16:13:20.133Z,7.37
2018-12-30T16:15:47.232Z,6.27
2018-12-30T16:18:14.384Z,7.07
2018-12-30T16:20:41.431Z,7.10
2018-12-30T16:23:08.485Z,7.17
2018-12-30T16:25:35.614Z,8.13
2018-12-30T16:28:02.761Z,8.63
2018-12-30T16:30:30.239Z,8.83
2018-12-30T16:32:57.386Z,8.50
2018-12-30T16:35:24.364Z,8.87
2018-12-30T16:37:51.662Z,9.33
2018-12-30T16:40:18.911Z,8.90
2018-12-30T16:42:46.499Z,9.10
2018-12-30T16:45:13.372Z,9.13
2018-12-30T16:47:42.017Z,8.73
2018-12-30T16:50:09.383Z,9.07
2018-12-30T16:52:36.533Z,9.90
2018-12-30T16:55:03.860Z,9.70
2018-12-30T16:57:30.884Z,10.20
2018-12-30T16:59:57.947Z,10.30
2018-12-30T17:02:24.711Z,9.77
2018-12-30T17:04:51.778Z,9.17
2018-12-30T17:07:18.827Z,9.83
2018-12-30T17:09:46.775Z,9.10
2018-12-30T17:12:14.192Z,9.33
2018-12-30T17:14:41.175Z,9.50
2018-12-30T17:17:08.246Z,8.97
2018-12-30T17:19:35.606Z,9.97
2018-12-30T17:22:02.787Z,8.30
2018-12-30T17:24:29.896Z,8.67
2018-12-30T17:26:58.480Z,9.20
2018-12-30T17:29:26.075Z,8.73
2018-12-30T17:31:53.391Z,9.30
2018-12-30T17:34:20.382Z,11.30
2018-12-30T17:36:47.489Z,10.30
2018-12-30T17:39:14.652Z,9.47
2018-12-30T17:41:41.896Z,10.33
2018-12-30T17:44:09.336Z,9.83
2018-12-30T17:46:36.708Z,10.60
2018-12-30T17:49:04.683Z,10.80
2018-12-30T17:51:32.015Z,10.00
2018-12-30T17:53:58.870Z,10.23
2018-12-30T17:56:25.646Z,9.77
2018-12-30T17:58:52.834Z,10.70
2018-12-30T18:01:20.319Z,10.20
2018-12-30T18:03:47.096Z,10.83
2018-12-30T18:06:14.630Z,10.03
2018-12-30T18:08:41.499Z,10.87
2018-12-30T18:11:08.899Z,11.23
2018-12-30T18:13:36.589Z,11.77
2018-12-30T18:16:03.584Z,11.40
2018-12-30T18:18:30.788Z,11.20
2018-12-30T18:20:58.143Z,11.00
2018-12-30T18:23:25.319Z,12.20
2018-12-30T18:25:58.584Z,11.83
2018-12-30T18:28:21.743Z,11.77
2018-12-30T18:30:48.609Z,12.13
2018-12-30T18:33:16.143Z,11.60
2018-12-30T18:35:43.277Z,12.83
2018-12-30T18:38:10.397Z,11.80
2018-12-30T18:40:37.955Z,13.17
2018-12-30T18:43:04.991Z,13.40
2018-12-30T18:45:32.203Z,12.87
2018-12-30T18:47:59.329Z,12.03
2018-12-30T18:50:26.869Z,12.70
2018-12-30T18:52:54.430Z,12.93
2018-12-30T18:55:22.051Z,12.50
2018-12-30T18:57:49.503Z,13.20
2018-12-30T19:00:16.850Z,12.97
2018-12-30T19:02:43.702Z,13.07
2018-12-30T19:05:10.740Z,12.67
2018-12-30T19:07:37.994Z,13.77
2018-12-30T19:10:05.859Z,13.87
2018-12-30T19:12:33.343Z,13.53
2018-12-30T19:15:00.427Z,13.47
2018-12-30T19:17:27.923Z,13.53
2018-12-30T19:19:55.463Z,14.30
2018-12-30T19:22:22.631Z,14.47
2018-12-30T19:24:49.644Z,14.37
2018-12-30T19:27:16.734Z,13.77
2018-12-30T19:29:43.884Z,14.73
2018-12-30T19:32:11.130Z,13.50
2018-12-30T19:34:38.175Z,15.10
2018-12-30T19:37:05.520Z,14.37
2018-12-30T19:39:33.001Z,14.90
2018-12-30T19:42:00.304Z,14.93
2018-12-30T19:44:27.398Z,14.00
2018-12-30T19:46:54.306Z,14.87
2018-12-30T19:49:21.726Z,14.73
2018-12-30T19:51:49.155Z,14.33
2018-12-30T19:54:15.931Z,14.00
2018-12-30T19:56:42.931Z,14.43
2018-12-30T19:59:10.084Z,15.20
2018-12-30T20:01:37.186Z,14.50
2018-12-30T20:04:04.908Z,14.60
2018-12-30T20:06:32.260Z,15.27
2018-12-30T20:08:59.020Z,14.63
2018-12-30T20:11:26.102Z,13.57
2018-12-30T20:13:53.007Z,14.47
2018-12-30T20:16:20.060Z,14.63
2018-12-30T20:18:47.403Z,14.13
2018-12-30T20:21:14.282Z,13.33
2018-12-30T20:23:41.059Z,13.90
2018-12-30T20:26:08.816Z,14.70
2018-12-30T20:28:36.305Z,14.00
2018-12-30T20:31:03.984Z,14.60
2018-12-30T20:33:31.016Z,13.77
2018-12-30T20:35:58.111Z,14.53
2018-12-30T20:38:25.484Z,14.27
2018-12-30T20:40:52.536Z,14.93
2018-12-30T20:43:19.600Z,14.73
2018-12-30T20:45:47.076Z,15.00
2018-12-30T20:48:14.352Z,15.77
2018-12-30T20:50:41.983Z,14.80
2018-12-30T20:53:09.283Z,16.77
2018-12-30T20:55:36.151Z,16.10
2018-12-30T20:58:03.042Z,16.70
2018-12-30T21:00:29.917Z,17.00
2018-12-30T21:02:57.302Z,16.67
2018-12-30T21:05:24.682Z,16.13
2018-12-30T21:07:52.507Z,17.60
2018-12-30T21:10:20.486Z,17.53
2018-12-30T21:12:47.575Z,18.43
2018-12-30T21:15:15.030Z,17.80
2018-12-30T21:17:42.075Z,19.20
2018-12-30T21:20:09.338Z,19.17
2018-12-30T21:22:36.787Z,19.20
2018-12-30T21:25:04.754Z,20.17
2018-12-30T21:27:31.780Z,19.33
2018-12-30T21:29:58.855Z,30.57
2018-12-30T21:32:25.721Z,35.50
2018-12-30T21:34:53.255Z,19.77
2018-12-30T21:37:20.524Z,18.40
2018-12-30T21:39:47.632Z,18.20
2018-12-30T21:42:14.715Z,17.30
2018-12-30T21:44:42.680Z,16.33
2018-12-30T21:47:09.447Z,17.73
2018-12-30T21:49:36.219Z,17.03
2018-12-30T21:52:03.184Z,16.63
2018-12-30T21:54:29.960Z,16.13
2018-12-30T21:56:57.052Z,15.80
2018-12-30T21:59:24.095Z,16.37
2018-12-30T22:01:50.868Z,15.03
2018-12-30T22:04:18.747Z,15.10
2018-12-30T22:06:46.000Z,16.30
2018-12-30T22:09:13.212Z,15.40
2018-12-30T22:11:40.577Z,14.67
2018-12-30T22:14:07.951Z,15.30
2018-12-30T22:16:35.644Z,15.67
2018-12-30T22:19:03.109Z,15.70
2018-12-30T22:21:30.715Z,15.50
2018-12-30T22:23:57.979Z,16.07
2018-12-30T22:26:25.015Z,14.90
2018-12-30T22:28:52.076Z,14.13
2018-12-30T22:31:19.094Z,15.03
2018-12-30T22:33:46.275Z,14.73
2018-12-30T22:36:13.342Z,15.10
2018-12-30T22:38:40.395Z,13.53
2018-12-30T22:41:07.440Z,14.20
2018-12-30T22:43:34.455Z,13.57
2018-12-30T22:46:01.518Z,13.67
2018-12-30T22:48:28.582Z,14.00
2018-12-30T22:50:55.591Z,14.40
2018-12-30T22:53:23.382Z,13.53
2018-12-30T22:55:50.819Z,13.23
2018-12-30T22:58:18.057Z,13.83
2018-12-30T23:01:00.531Z,13.17
2018-12-30T23:03:27.391Z,12.77
2018-12-30T23:05:54.671Z,13.03
2018-12-30T23:08:21.813Z,13.23
2018-12-30T23:10:52.794Z,12.67
2018-12-30T23:13:19.703Z,12.30
2018-12-30T23:15:46.822Z,12.97
2018-12-30T23:18:14.155Z,12.90
2018-12-30T23:20:42.919Z,11.93
2018-12-30T23:23:10.150Z,11.83
2018-12-30T23:25:36.911Z,12.10
2018-12-30T23:28:03.984Z,12.03
2018-12-30T23:30:31.123Z,11.87
2018-12-30T23:32:58.468Z,12.13
2018-12-30T23:35:25.223Z,11.90
2018-12-30T23:37:52.035Z,11.37
2018-12-30T23:40:19.094Z,10.40
2018-12-30T23:42:46.431Z,10.80
2018-12-30T23:45:13.467Z,11.10
2018-12-30T23:47:40.878Z,10.70
2018-12-30T23:50:08.139Z,10.20
2018-12-30T23:52:35.686Z,10.10
2018-12-30T23:55:03.279Z,10.03
2018-12-30T23:57:31.023Z,9.50
2018-12-30T23:59:58.422Z,9.77
